Time;durP1;ratioP1;P1;durP2;ratioP2;P2;SDS_P1;SDS_P2;PMS_P1;PMS_P2;Temp;Humidity;BMP_temperature;BMP_pressure;BME280_temperature;BME280_humidity;BME280_pressure;Samples;Min_cycle;Max_cycle;Signal;HPM_P1;HPM_P2
2021/12/08 00:00:59;;;;;;;4.32;1.30;;;6.20;81.70;;;;;;5019331;28;20056;-75
2021/12/08 00:03:28;;;;;;;8.63;1.48;;;6.10;81.70;;;;;;5033259;28;20033;-74
2021/12/08 00:05:54;;;;;;;2.95;1.58;;;6.00;82.20;;;;;;5031665;28;20021;-74
2021/12/08 00:08:21;;;;;;;5.95;1.77;;;6.10;82.70;;;;;;5033124;28;20033;-75
2021/12/08 00:13:30;;;;;;;2.95;1.35;;;6.00;82.30;;;;;;5034630;28;20491;-75
2021/12/08 00:15:59;;;;;;;3.95;1.40;;;6.00;82.30;;;;;;5034442;28;20438;-75
2021/12/08 00:18:28;;;;;;;1.63;1.08;;;6.00;82.50;;;;;;5016452;28;20038;-75
2021/12/08 00:20:57;;;;;;;2.30;1.38;;;6.00;82.40;;;;;;5014662;28;20484;-75
2021/12/08 00:23:24;;;;;;;4.68;1.90;;;6.00;82.00;;;;;;5024057;28;20034;-74
2021/12/08 00:25:50;;;;;;;6.53;1.70;;;6.00;82.20;;;;;;5034445;28;20025;-75
2021/12/08 00:28:16;;;;;;;6.18;1.55;;;6.10;82.20;;;;;;5032610;28;20575;-74
2021/12/08 00:30:45;;;;;;;2.67;1.38;;;6.00;81.90;;;;;;5020084;28;20022;-74
2021/12/08 00:33:12;;;;;;;8.13;1.55;;;6.00;82.40;;;;;;5033733;28;20528;-74
2021/12/08 00:35:40;;;;;;;4.80;1.42;;;6.10;82.30;;;;;;5018335;28;20037;-75
2021/12/08 00:38:07;;;;;;;1.95;1.50;;;6.00;81.90;;;;;;5018382;28;20021;-75
2021/12/08 00:40:33;;;;;;;5.53;1.48;;;6.20;82.30;;;;;;5018270;28;20022;-75
2021/12/08 00:43:00;;;;;;;1.35;1.10;;;6.20;81.80;;;;;;5018691;28;20030;-75
2021/12/08 00:45:27;;;;;;;9.00;3.70;;;6.20;82.00;;;;;;5035448;28;20021;-75
2021/12/08 00:47:54;;;;;;;5.38;1.33;;;6.20;81.30;;;;;;5056728;28;20033;-75
2021/12/08 00:50:22;;;;;;;5.90;1.27;;;6.20;81.00;;;;;;5035211;28;20033;-75
2021/12/08 00:52:49;;;;;;;3.70;1.38;;;6.30;81.00;;;;;;5016369;28;20033;-75
2021/12/08 00:55:15;;;;;;;4.32;1.35;;;6.20;80.70;;;;;;5017667;28;20022;-75
2021/12/08 00:57:42;;;;;;;7.03;1.38;;;6.30;80.60;;;;;;5018080;28;20065;-75
2021/12/08 01:00:15;;;;;;;3.08;1.50;;;6.30;81.00;;;;;;5028499;28;20033;-75
2021/12/08 01:02:43;;;;;;;5.05;1.55;;;6.40;80.90;;;;;;5017149;28;20117;-75
2021/12/08 01:05:12;;;;;;;4.30;1.20;;;6.40;80.40;;;;;;5017960;28;20022;-75
2021/12/08 01:07:38;;;;;;;7.13;1.65;;;6.50;80.70;;;;;;5017753;28;20033;-74
2021/12/08 01:10:06;;;;;;;5.72;1.20;;;6.50;80.50;;;;;;5017626;28;20029;-75
2021/12/08 01:12:32;;;;;;;4.05;1.40;;;6.40;80.40;;;;;;5017665;28;20060;-75
2021/12/08 01:14:58;;;;;;;2.47;1.20;;;6.40;80.20;;;;;;5018226;28;20030;-74
2021/12/08 01:17:23;;;;;;;3.25;1.27;;;6.40;80.60;;;;;;5017600;28;20488;-74
2021/12/08 01:19:49;;;;;;;1.45;1.10;;;6.30;80.10;;;;;;5016400;28;20026;-75
2021/12/08 01:22:15;;;;;;;2.38;1.23;;;6.30;80.90;;;;;;5017897;28;20443;-74
2021/12/08 01:24:40;;;;;;;3.63;1.15;;;6.30;80.50;;;;;;5017632;28;20412;-75
2021/12/08 01:27:06;;;;;;;3.80;1.38;;;6.20;80.30;;;;;;5017611;28;20036;-75
2021/12/08 01:29:31;;;;;;;4.10;1.08;;;6.20;80.30;;;;;;5017407;28;20771;-75
2021/12/08 01:31:57;;;;;;;4.97;1.30;;;6.10;80.30;;;;;;5017411;28;20022;-75
2021/12/08 01:34:23;;;;;;;1.25;0.90;;;6.20;80.50;;;;;;5016127;28;20480;-75
2021/12/08 01:36:48;;;;;;;6.45;1.10;;;6.20;80.30;;;;;;5017525;28;20045;-75
2021/12/08 01:39:14;;;;;;;3.60;0.88;;;6.20;80.50;;;;;;5017003;28;20069;-75
2021/12/08 01:41:40;;;;;;;2.55;0.80;;;6.20;80.30;;;;;;5030223;28;20034;-74
2021/12/08 01:46:55;;;;;;;0.70;0.70;;;6.20;80.50;;;;;;5017558;28;20131;-74
2021/12/08 01:49:22;;;;;;;2.33;0.90;;;6.20;80.10;;;;;;5017187;28;20508;-75
2021/12/08 01:51:48;;;;;;;1.85;0.80;;;6.20;80.60;;;;;;5016921;28;20155;-75
2021/12/08 01:54:15;;;;;;;2.08;1.48;;;6.20;80.60;;;;;;5017467;28;20050;-75
2021/12/08 01:56:41;;;;;;;2.03;1.15;;;6.30;79.60;;;;;;5017383;28;20466;-75
2021/12/08 01:59:11;;;;;;;3.15;1.00;;;6.20;79.90;;;;;;5018154;28;20116;-75
2021/12/08 02:01:39;;;;;;;4.25;0.95;;;6.30;79.60;;;;;;5035045;28;20109;-75
2021/12/08 02:04:06;;;;;;;1.67;0.90;;;6.30;79.80;;;;;;5036855;28;20036;-75
2021/12/08 02:06:36;;;;;;;0.70;0.70;;;6.30;79.40;;;;;;5017722;28;20089;-75
2021/12/08 02:09:05;;;;;;;2.60;1.00;;;6.20;79.30;;;;;;5016758;28;20618;-75
2021/12/08 02:11:31;;;;;;;1.25;1.15;;;6.20;79.60;;;;;;5017056;28;20471;-75
2021/12/08 02:14:00;;;;;;;1.00;0.90;;;6.20;79.50;;;;;;5015309;28;20033;-75
2021/12/08 02:16:30;;;;;;;2.17;1.17;;;6.20;79.40;;;;;;5017091;28;20029;-75
2021/12/08 02:18:58;;;;;;;1.55;1.05;;;6.10;79.80;;;;;;5016384;28;20041;-74
2021/12/08 02:21:31;;;;;;;1.02;0.90;;;6.00;80.20;;;;;;5016375;28;20033;-74
2021/12/08 02:24:03;;;;;;;0.82;0.82;;;6.00;79.90;;;;;;5016223;28;20033;-74
2021/12/08 02:26:29;;;;;;;1.25;0.88;;;6.00;79.90;;;;;;5016463;28;20041;-75
2021/12/08 02:28:56;;;;;;;1.92;1.00;;;6.00;79.90;;;;;;5016397;28;20719;-75
2021/12/08 02:31:49;;;;;;;1.30;0.90;;;6.00;79.90;;;;;;5016050;28;20022;-75
2021/12/08 02:47:54;;;;;;;2.05;1.00;;;5.90;80.60;;;;;;5018607;28;20151;-75
2021/12/08 02:50:39;;;;;;;4.40;1.25;;;5.90;80.90;;;;;;5016017;28;20049;-75
2021/12/08 02:53:06;;;;;;;7.25;1.90;;;5.80;81.00;;;;;;5015726;28;20038;-74
2021/12/08 02:55:32;;;;;;;3.90;1.10;;;5.80;81.20;;;;;;5015968;28;20033;-74
2021/12/08 02:58:01;;;;;;;2.25;1.17;;;5.80;81.40;;;;;;5015711;28;20061;-74
2021/12/08 03:00:29;;;;;;;6.07;1.38;;;5.70;81.20;;;;;;5017279;28;20342;-74
2021/12/08 03:02:58;;;;;;;0.85;0.85;;;5.80;81.40;;;;;;5015921;28;20472;-75
2021/12/08 03:05:25;;;;;;;2.05;0.77;;;5.80;81.60;;;;;;5014453;28;20092;-75
2021/12/08 03:07:51;;;;;;;1.58;1.10;;;5.80;81.40;;;;;;5016024;28;20029;-75
2021/12/08 03:10:20;;;;;;;4.32;0.90;;;5.70;81.20;;;;;;5015637;28;20033;-75
2021/12/08 03:12:46;;;;;;;5.20;1.70;;;5.70;81.80;;;;;;5015457;28;20054;-74
2021/12/08 03:15:14;;;;;;;3.47;1.33;;;5.70;81.80;;;;;;5015519;28;20030;-75
2021/12/08 03:17:41;;;;;;;1.02;0.90;;;5.70;81.80;;;;;;5011276;28;20037;-75
2021/12/08 03:20:10;;;;;;;1.25;0.93;;;5.60;81.80;;;;;;5015720;28;20026;-75
2021/12/08 03:22:42;;;;;;;3.97;1.27;;;5.70;81.90;;;;;;5015588;28;20040;-75
2021/12/08 03:25:11;;;;;;;1.73;0.93;;;5.70;82.20;;;;;;5035429;28;20052;-75
2021/12/08 03:27:44;;;;;;;3.67;0.97;;;5.70;82.10;;;;;;5034885;28;20032;-75
2021/12/08 03:30:23;;;;;;;3.67;1.30;;;5.60;82.30;;;;;;5034994;28;20022;-74
2021/12/08 03:32:55;;;;;;;5.15;1.27;;;5.60;82.30;;;;;;5031869;28;20040;-74
2021/12/08 03:35:21;;;;;;;2.97;1.20;;;5.60;82.20;;;;;;5015462;28;20026;-75
2021/12/08 03:37:47;;;;;;;2.35;1.17;;;5.60;82.30;;;;;;5015180;28;20033;-75
2021/12/08 03:40:17;;;;;;;1.13;1.00;;;5.60;82.10;;;;;;5015376;28;20053;-74
2021/12/08 03:42:46;;;;;;;1.58;1.17;;;5.50;81.90;;;;;;5015778;28;20583;-74
2021/12/08 03:45:22;;;;;;;6.25;1.13;;;5.40;82.50;;;;;;5028597;28;20028;-75
2021/12/08 03:47:58;;;;;;;3.45;1.25;;;5.40;82.70;;;;;;5054992;28;20082;-75
2021/12/08 03:50:23;;;;;;;2.80;1.05;;;5.40;82.70;;;;;;5054866;28;20400;-75
2021/12/08 03:52:49;;;;;;;3.78;1.23;;;5.40;82.80;;;;;;5016489;28;20109;-74
2021/12/08 03:55:16;;;;;;;3.55;1.20;;;5.30;82.80;;;;;;5015163;28;20504;-75
2021/12/08 03:57:42;;;;;;;1.38;1.00;;;5.40;82.50;;;;;;5015142;28;20037;-75
2021/12/08 04:00:12;;;;;;;4.05;1.35;;;5.40;82.70;;;;;;5025948;28;20048;-75
2021/12/08 04:02:37;;;;;;;1.10;1.00;;;5.40;82.10;;;;;;5035713;28;20029;-74
2021/12/08 04:05:05;;;;;;;2.67;1.33;;;5.40;82.30;;;;;;5029519;28;20042;-74
2021/12/08 04:07:31;;;;;;;1.63;1.10;;;5.40;82.50;;;;;;5018998;28;20400;-74
2021/12/08 04:09:58;;;;;;;1.98;1.05;;;5.50;82.70;;;;;;5019111;28;20026;-75
2021/12/08 04:12:24;;;;;;;2.20;1.20;;;5.40;82.20;;;;;;5018943;28;20067;-75
2021/12/08 04:14:57;;;;;;;4.85;1.27;;;5.30;82.30;;;;;;5017985;28;20041;-75
2021/12/08 04:17:36;;;;;;;3.72;1.10;;;5.40;82.60;;;;;;5017486;28;20053;-75
2021/12/08 04:20:10;;;;;;;4.63;1.45;;;5.40;82.40;;;;;;5017351;28;20034;-75
2021/12/08 04:22:40;;;;;;;2.30;1.30;;;5.40;81.90;;;;;;5018954;28;20057;-75
2021/12/08 04:25:15;;;;;;;1.73;1.15;;;5.40;82.00;;;;;;5019174;28;20472;-74
2021/12/08 04:27:43;;;;;;;5.00;1.30;;;5.40;81.70;;;;;;5018640;28;20080;-75
2021/12/08 04:30:19;;;;;;;2.03;1.42;;;5.30;82.00;;;;;;5019129;28;20099;-75
2021/12/08 04:32:45;;;;;;;1.50;0.98;;;5.30;81.90;;;;;;5018779;28;20444;-75
2021/12/08 04:35:14;;;;;;;3.10;1.85;;;5.30;81.90;;;;;;5018459;28;20077;-74
2021/12/08 04:37:45;;;;;;;2.78;1.20;;;5.20;81.70;;;;;;5016821;28;20033;-75
2021/12/08 04:40:38;;;;;;;1.73;1.10;;;5.20;81.90;;;;;;5018486;28;20054;-75
2021/12/08 04:43:27;;;;;;;2.47;1.15;;;5.20;81.70;;;;;;5018430;28;20765;-74
2021/12/08 04:51:35;;;;;;;2.63;1.30;;;5.20;81.90;;;;;;5018281;28;20030;-74
2021/12/08 05:05:08;;;;;;;3.97;1.20;;;5.20;81.60;;;;;;5037974;28;20103;-75
2021/12/08 05:07:48;;;;;;;11.25;1.85;;;5.20;81.90;;;;;;5019423;28;20037;-74
2021/12/08 05:10:20;;;;;;;2.00;1.35;;;5.20;81.60;;;;;;5018098;28;20022;-74
2021/12/08 05:12:48;;;;;;;6.22;1.38;;;5.20;81.70;;;;;;5017181;28;20041;-74
2021/12/08 05:15:30;;;;;;;2.72;1.40;;;5.10;81.60;;;;;;5016890;28;20057;-75
2021/12/08 05:18:11;;;;;;;2.88;1.20;;;5.00;81.50;;;;;;5017916;28;20066;-74
2021/12/08 05:20:37;;;;;;;4.07;1.48;;;5.00;82.10;;;;;;5017895;28;20053;-75
2021/12/08 05:23:11;;;;;;;4.28;1.23;;;4.90;81.70;;;;;;5017622;28;20034;-75
2021/12/08 05:25:39;;;;;;;2.92;1.30;;;4.90;81.90;;;;;;5016423;28;20033;-74
2021/12/08 05:28:08;;;;;;;3.30;1.38;;;4.80;82.20;;;;;;5018153;28;20065;-74
2021/12/08 05:30:41;;;;;;;6.03;1.42;;;4.70;82.80;;;;;;5018074;28;20124;-75
2021/12/08 05:33:09;;;;;;;2.38;1.30;;;4.70;82.80;;;;;;5017399;28;20037;-75
2021/12/08 05:35:37;;;;;;;2.83;1.50;;;4.60;83.10;;;;;;5016004;28;20550;-75
2021/12/08 05:38:03;;;;;;;2.47;1.35;;;4.70;83.40;;;;;;5017297;28;20025;-74
2021/12/08 05:40:42;;;;;;;4.07;1.60;;;4.70;83.10;;;;;;5017310;28;20405;-75
2021/12/08 05:43:09;;;;;;;2.65;1.25;;;4.70;82.70;;;;;;5017576;28;20504;-73
2021/12/08 05:45:36;;;;;;;5.85;1.38;;;4.70;82.50;;;;;;5037323;28;20383;-75
2021/12/08 05:48:03;;;;;;;2.97;1.60;;;4.80;82.90;;;;;;5055830;28;20100;-75
2021/12/08 05:50:46;;;;;;;1.98;0.98;;;4.90;82.90;;;;;;5026169;28;20029;-75
2021/12/08 05:53:12;;;;;;;8.45;1.80;;;4.80;82.30;;;;;;5029570;28;20076;-75
2021/12/08 05:55:39;;;;;;;2.28;1.10;;;4.90;82.50;;;;;;5036967;28;20025;-76
2021/12/08 05:58:06;;;;;;;2.33;1.33;;;5.10;82.10;;;;;;5031348;28;20544;-75
2021/12/08 06:00:39;;;;;;;6.72;1.58;;;5.10;82.10;;;;;;5017261;28;20107;-77
2021/12/08 06:03:04;;;;;;;7.72;1.85;;;5.20;82.00;;;;;;5016964;28;20030;-76
2021/12/08 06:05:31;;;;;;;1.80;1.00;;;5.20;81.20;;;;;;5017024;28;20125;-76
2021/12/08 06:07:58;;;;;;;2.58;1.10;;;5.30;81.20;;;;;;5016961;28;20037;-76
2021/12/08 06:10:32;;;;;;;2.00;1.30;;;5.40;81.40;;;;;;5036517;28;20492;-76
2021/12/08 06:12:59;;;;;;;4.38;1.45;;;5.40;81.20;;;;;;5029035;28;20139;-76
2021/12/08 06:15:25;;;;;;;1.77;1.13;;;5.50;81.20;;;;;;5033493;28;20037;-76
2021/12/08 06:17:53;;;;;;;2.65;1.35;;;5.50;80.50;;;;;;5033648;28;20056;-78
2021/12/08 06:20:19;;;;;;;1.10;1.00;;;5.60;80.30;;;;;;5036091;28;20374;-75
2021/12/08 06:22:47;;;;;;;3.72;1.38;;;5.50;80.30;;;;;;5020992;28;20030;-76
2021/12/08 06:25:15;;;;;;;3.97;1.33;;;5.50;80.70;;;;;;5016044;28;20481;-77
2021/12/08 06:27:41;;;;;;;2.65;1.42;;;5.60;80.40;;;;;;5019674;28;20064;-76
2021/12/08 06:30:15;;;;;;;3.55;1.20;;;5.60;80.50;;;;;;5034735;28;20029;-75
2021/12/08 06:32:41;;;;;;;1.38;1.20;;;5.60;80.30;;;;;;5025818;28;20055;-76
2021/12/08 06:35:11;;;;;;;1.92;1.20;;;5.60;80.50;;;;;;5010095;28;20384;-76
2021/12/08 06:37:38;;;;;;;;;;;5.50;80.00;;;;;;5016612;28;20190;-76
2021/12/08 06:40:19;;;;;;;4.75;1.60;;;5.60;80.50;;;;;;5028223;28;19909;-76
2021/12/08 06:42:48;;;;;;;5.80;1.25;;;5.60;80.60;;;;;;5019862;28;20030;-76
2021/12/08 06:45:20;;;;;;;2.67;1.10;;;5.50;80.90;;;;;;5033889;28;20025;-76
2021/12/08 06:47:49;;;;;;;2.83;1.30;;;5.50;81.00;;;;;;5034485;28;20709;-76
2021/12/08 06:50:19;;;;;;;2.38;1.23;;;5.40;80.70;;;;;;5035361;28;20102;-77
2021/12/08 06:52:44;;;;;;;3.63;1.27;;;5.30;80.80;;;;;;5028715;28;20033;-75
2021/12/08 06:55:21;;;;;;;1.35;1.10;;;5.20;81.50;;;;;;5031050;28;20041;-75
2021/12/08 06:57:52;;;;;;;2.10;1.40;;;5.20;81.10;;;;;;5015881;28;20026;-75
2021/12/08 07:08:30;;;;;;;2.50;1.40;;;5.20;81.80;;;;;;5016039;28;20080;-75
2021/12/08 07:10:56;;;;;;;6.50;1.67;;;5.20;81.80;;;;;;5035565;28;20026;-75
2021/12/08 07:13:25;;;;;;;1.52;1.20;;;5.20;81.80;;;;;;5028140;28;20026;-75
2021/12/08 07:16:11;;;;;;;4.45;1.52;;;5.20;81.50;;;;;;5016001;28;20040;-75
2021/12/08 07:18:50;;;;;;;4.15;1.40;;;5.30;82.10;;;;;;5015846;28;20045;-74
2021/12/08 07:21:16;;;;;;;1.80;1.17;;;5.40;82.10;;;;;;5015343;28;20105;-74
2021/12/08 07:23:52;;;;;;;7.03;1.63;;;5.50;81.90;;;;;;5015993;28;20053;-74
2021/12/08 07:26:29;;;;;;;3.20;1.38;;;5.60;82.00;;;;;;5015544;28;20061;-74
2021/12/08 07:28:57;;;;;;;3.30;1.60;;;5.50;81.60;;;;;;5015686;28;20022;-74
2021/12/08 07:31:36;;;;;;;3.47;1.67;;;5.50;81.80;;;;;;5014313;28;20032;-74
2021/12/08 07:34:06;;;;;;;1.40;1.27;;;5.50;82.10;;;;;;5015257;28;20048;-74
2021/12/08 07:36:37;;;;;;;1.63;1.33;;;5.40;82.00;;;;;;5014914;28;20160;-74
2021/12/08 07:39:07;;;;;;;2.05;1.48;;;5.30;82.00;;;;;;5014948;28;20105;-74
2021/12/08 07:41:38;;;;;;;7.25;2.20;;;5.30;82.20;;;;;;5015658;28;20025;-74
2021/12/08 07:44:09;;;;;;;7.20;1.88;;;5.20;82.30;;;;;;5015467;28;20045;-74
2021/12/08 07:46:46;;;;;;;2.20;1.77;;;5.20;82.40;;;;;;5028579;28;20136;-74
2021/12/08 07:49:24;;;;;;;5.05;1.80;;;5.20;81.90;;;;;;5014222;28;20055;-74
2021/12/08 07:51:59;;;;;;;4.47;1.65;;;5.10;82.30;;;;;;5015129;28;20025;-74
2021/12/08 07:54:26;;;;;;;2.15;1.52;;;5.10;82.50;;;;;;5015252;28;20030;-74
2021/12/08 07:56:56;;;;;;;2.55;1.38;;;5.10;82.60;;;;;;5013740;28;20030;-74
2021/12/08 07:59:22;;;;;;;1.65;1.40;;;5.10;82.60;;;;;;5013873;28;20022;-74
2021/12/08 08:01:53;;;;;;;2.72;1.40;;;5.10;82.70;;;;;;5015576;28;20109;-74
2021/12/08 08:04:21;;;;;;;6.57;1.85;;;5.00;82.80;;;;;;5013711;28;20022;-74
2021/12/08 08:06:50;;;;;;;3.30;1.65;;;5.00;83.00;;;;;;5013605;28;20034;-74
2021/12/08 08:09:25;;;;;;;3.77;2.20;;;4.90;83.00;;;;;;5015052;28;20026;-74
2021/12/08 08:11:56;;;;;;;3.97;2.25;;;4.90;83.20;;;;;;5013657;28;20260;-74
2021/12/08 08:14:29;;;;;;;4.70;2.72;;;5.00;83.20;;;;;;5015017;28;20041;-74
2021/12/08 08:16:57;;;;;;;4.78;2.28;;;5.00;83.10;;;;;;5017755;28;20040;-74
2021/12/08 08:19:29;;;;;;;2.72;1.80;;;5.10;83.00;;;;;;5015006;28;20021;-74
2021/12/08 08:22:00;;;;;;;2.42;1.73;;;5.20;83.00;;;;;;5013414;28;20045;-74
2021/12/08 08:24:27;;;;;;;3.65;1.85;;;5.30;82.70;;;;;;5014707;28;20036;-74
2021/12/08 08:26:55;;;;;;;4.97;2.40;;;5.30;82.50;;;;;;5014726;28;20065;-74
2021/12/08 08:29:21;;;;;;;10.10;2.97;;;5.40;82.50;;;;;;5018628;28;20029;-74
2021/12/08 08:32:19;;;;;;;5.57;3.15;;;5.50;82.40;;;;;;5014973;28;20137;-74
2021/12/08 08:34:52;;;;;;;6.75;2.08;;;5.50;82.40;;;;;;5014669;28;20029;-74
2021/12/08 08:37:18;;;;;;;3.75;1.90;;;5.50;81.70;;;;;;5014786;28;20033;-74
2021/12/08 08:39:49;;;;;;;7.82;2.10;;;5.60;82.10;;;;;;5014824;28;20029;-74
2021/12/08 08:42:25;;;;;;;2.92;1.77;;;5.60;82.10;;;;;;5014579;28;20046;-74
2021/12/08 08:44:58;;;;;;;8.32;2.17;;;5.60;82.10;;;;;;5018563;28;20116;-74
2021/12/08 08:47:47;;;;;;;2.88;1.80;;;5.60;81.80;;;;;;5034394;28;20581;-74
2021/12/08 08:50:21;;;;;;;4.65;1.90;;;5.60;81.40;;;;;;5036206;28;20391;-74
2021/12/08 08:52:50;;;;;;;2.47;2.00;;;5.70;81.70;;;;;;5031907;28;20035;-74
2021/12/08 08:55:22;;;;;;;2.75;2.05;;;5.70;81.70;;;;;;5018220;28;20037;-74
2021/12/08 08:57:48;;;;;;;3.88;1.88;;;5.70;81.50;;;;;;5016876;28;20156;-74
2021/12/08 09:00:23;;;;;;;2.20;1.85;;;5.70;81.50;;;;;;5018404;28;20064;-75
2021/12/08 09:02:52;;;;;;;3.42;1.30;;;5.70;81.10;;;;;;5016892;28;20033;-74
2021/12/08 09:05:20;;;;;;;1.88;1.45;;;5.70;80.80;;;;;;5017980;28;20030;-75
2021/12/08 09:07:49;;;;;;;1.40;1.30;;;5.60;81.20;;;;;;5017094;28;20049;-74
2021/12/08 09:10:22;;;;;;;1.50;1.17;;;5.50;81.60;;;;;;5018146;28;20104;-74
2021/12/08 09:12:56;;;;;;;2.47;1.70;;;5.50;81.20;;;;;;5024228;28;20033;-74
2021/12/08 09:15:34;;;;;;;1.58;1.40;;;5.50;81.60;;;;;;5016646;28;20149;-74
2021/12/08 09:18:14;;;;;;;2.95;1.55;;;5.60;81.20;;;;;;5017507;28;20030;-74
2021/12/08 09:21:08;;;;;;;3.17;1.70;;;5.50;80.80;;;;;;5018315;28;20051;-73
2021/12/08 09:23:49;;;;;;;2.50;1.40;;;5.50;81.00;;;;;;5017693;28;20072;-74
2021/12/08 09:26:19;;;;;;;2.47;1.50;;;5.60;81.00;;;;;;5018291;28;20018;-74
2021/12/08 09:28:50;;;;;;;1.70;1.42;;;5.70;81.20;;;;;;5017666;28;20022;-74
2021/12/08 09:31:19;;;;;;;3.20;1.45;;;5.90;80.80;;;;;;5017963;28;20049;-74
2021/12/08 09:34:04;;;;;;;2.17;1.65;;;6.00;80.40;;;;;;5016282;28;20022;-74
2021/12/08 09:36:36;;;;;;;2.05;1.50;;;6.00;80.30;;;;;;5017332;28;20048;-75
2021/12/08 09:39:10;;;;;;;2.05;1.70;;;5.90;80.20;;;;;;5017172;28;20018;-74
2021/12/08 09:41:45;;;;;;;4.65;1.63;;;6.00;80.30;;;;;;5017294;28;20080;-74
2021/12/08 09:44:15;;;;;;;2.22;1.60;;;6.00;80.40;;;;;;5017497;28;20033;-74
2021/12/08 09:46:43;;;;;;;10.57;1.92;;;5.90;80.10;;;;;;5034564;28;20053;-74
2021/12/08 09:49:12;;;;;;;3.10;1.50;;;5.90;80.20;;;;;;5037232;28;20029;-74
2021/12/08 09:51:39;;;;;;;3.40;2.03;;;5.90;80.20;;;;;;5036857;28;20033;-74
2021/12/08 09:54:05;;;;;;;2.80;1.70;;;6.10;80.50;;;;;;5030072;28;20032;-74
2021/12/08 09:56:33;;;;;;;2.13;1.77;;;6.20;80.40;;;;;;5017073;28;20366;-74
2021/12/08 09:59:00;;;;;;;4.13;1.85;;;6.30;80.20;;;;;;5017109;28;20033;-74
2021/12/08 10:01:27;;;;;;;1.73;1.50;;;6.40;79.80;;;;;;5016695;28;20064;-74
2021/12/08 10:03:55;;;;;;;5.07;2.10;;;6.50;79.00;;;;;;5016995;28;20022;-74
2021/12/08 10:06:24;;;;;;;4.70;1.80;;;6.50;79.30;;;;;;5016752;28;20018;-74
2021/12/08 10:08:51;;;;;;;3.58;1.95;;;6.60;79.10;;;;;;5017096;28;20038;-74
2021/12/08 10:11:18;;;;;;;5.07;1.40;;;6.70;78.90;;;;;;5017031;28;20025;-75
2021/12/08 10:13:45;;;;;;;7.03;1.73;;;6.70;79.10;;;;;;5017118;28;20405;-74
2021/12/08 10:16:14;;;;;;;1.60;1.35;;;6.80;78.90;;;;;;5016628;28;20548;-74
2021/12/08 10:18:42;;;;;;;3.05;1.45;;;6.80;78.70;;;;;;5016698;28;20361;-74
2021/12/08 10:21:08;;;;;;;3.60;1.67;;;6.90;78.70;;;;;;5016479;28;20377;-74
2021/12/08 10:23:36;;;;;;;2.35;1.20;;;6.90;78.80;;;;;;5016421;28;20057;-74
2021/12/08 10:26:19;;;;;;;3.92;1.90;;;6.90;77.60;;;;;;5016562;28;20080;-75
2021/12/08 10:28:54;;;;;;;1.95;0.98;;;7.00;78.10;;;;;;5016402;28;20026;-74
2021/12/08 10:31:26;;;;;;;4.03;1.60;;;7.00;77.30;;;;;;5016598;28;20052;-74
2021/12/08 10:34:10;;;;;;;5.45;1.80;;;7.10;77.40;;;;;;5016328;28;20073;-75
2021/12/08 10:36:46;;;;;;;3.75;1.55;;;7.20;77.20;;;;;;5016329;28;20084;-74
2021/12/08 10:39:21;;;;;;;2.95;1.65;;;7.20;77.00;;;;;;5016130;28;20026;-74
2021/12/08 10:41:58;;;;;;;2.88;1.50;;;7.30;77.10;;;;;;5016123;28;20468;-74
2021/12/08 10:47:12;;;;;;;5.40;1.77;;;7.30;77.20;;;;;;5016615;28;20058;-74
2021/12/08 10:55:06;;;;;;;3.22;1.55;;;7.70;76.80;;;;;;5016134;28;20040;-74
2021/12/08 10:57:36;;;;;;;2.78;1.48;;;8.00;76.20;;;;;;5016274;28;20096;-74
2021/12/08 11:00:09;;;;;;;6.53;1.83;;;8.30;75.10;;;;;;5016179;28;20504;-75
2021/12/08 11:02:47;;;;;;;6.28;2.03;;;8.40;75.20;;;;;;5015977;28;20116;-74
2021/12/08 11:05:25;;;;;;;6.65;2.17;;;8.40;74.70;;;;;;5016071;28;20025;-74
2021/12/08 11:08:01;;;;;;;2.97;1.73;;;8.30;74.30;;;;;;5015791;28;20099;-74
2021/12/08 11:10:26;;;;;;;2.05;1.48;;;8.20;74.70;;;;;;5015829;28;20026;-74
2021/12/08 11:12:55;;;;;;;5.03;1.45;;;8.20;74.60;;;;;;5015192;28;20036;-74
2021/12/08 11:15:22;;;;;;;6.88;2.30;;;8.10;75.30;;;;;;5016122;28;20022;-74
2021/12/08 11:18:05;;;;;;;5.80;1.40;;;8.00;75.00;;;;;;5015625;28;20061;-74
2021/12/08 11:20:32;;;;;;;4.88;2.05;;;8.00;75.00;;;;;;5014513;28;20021;-74
2021/12/08 11:23:04;;;;;;;8.85;1.67;;;8.00;74.40;;;;;;5015829;28;20098;-74
2021/12/08 11:25:40;;;;;;;3.13;1.63;;;8.00;74.80;;;;;;5015240;28;20022;-74
2021/12/08 11:28:18;;;;;;;3.42;1.25;;;8.10;74.90;;;;;;5015908;28;20105;-74
2021/12/08 11:30:44;;;;;;;2.08;1.63;;;8.20;74.30;;;;;;5014236;28;20385;-74
2021/12/08 11:33:12;;;;;;;4.05;1.80;;;8.30;73.90;;;;;;5015584;28;20040;-74
2021/12/08 11:35:38;;;;;;;2.00;1.73;;;8.30;73.70;;;;;;5017454;28;20072;-74
2021/12/08 11:38:03;;;;;;;4.28;1.40;;;8.30;73.40;;;;;;5033688;28;20033;-75
2021/12/08 11:40:34;;;;;;;4.78;1.48;;;8.40;73.40;;;;;;5033183;28;20025;-74
2021/12/08 11:43:00;;;;;;;2.78;1.40;;;8.50;72.80;;;;;;5029675;28;20029;-74
2021/12/08 11:45:25;;;;;;;3.70;1.63;;;8.50;72.80;;;;;;5032769;28;20025;-75
2021/12/08 11:47:51;;;;;;;1.95;1.05;;;8.60;72.80;;;;;;5054855;28;20044;-74
2021/12/08 11:50:21;;;;;;;1.60;1.35;;;8.60;71.00;;;;;;5026627;28;20057;-74
2021/12/08 11:52:52;;;;;;;6.35;1.20;;;8.60;71.30;;;;;;5020246;28;20026;-75
2021/12/08 11:55:21;;;;;;;2.70;1.42;;;8.70;70.70;;;;;;5024598;28;20041;-74
2021/12/08 11:57:53;;;;;;;1.50;1.20;;;8.70;70.40;;;;;;5024883;28;20033;-74
2021/12/08 12:00:32;;;;;;;4.72;1.42;;;8.90;70.30;;;;;;5034035;28;20100;-74
2021/12/08 12:03:08;;;;;;;3.63;1.30;;;8.90;70.60;;;;;;5032358;28;20053;-75
2021/12/08 12:05:37;;;;;;;5.07;1.38;;;9.00;69.90;;;;;;5028523;28;20033;-75
2021/12/08 12:08:05;;;;;;;2.78;1.10;;;9.00;70.40;;;;;;5013526;28;20481;-75
2021/12/08 12:10:35;;;;;;;2.47;1.10;;;9.00;69.70;;;;;;5014817;28;20022;-74
2021/12/08 12:13:03;;;;;;;1.58;1.48;;;9.10;69.00;;;;;;5012309;28;20033;-75
2021/12/08 12:15:29;;;;;;;3.95;1.20;;;9.10;69.50;;;;;;5014174;28;20030;-74
2021/12/08 12:17:56;;;;;;;7.53;1.27;;;9.10;68.90;;;;;;5034253;28;20409;-74
2021/12/08 12:20:27;;;;;;;4.50;1.20;;;9.10;69.10;;;;;;5034290;28;20025;-75
2021/12/08 12:23:23;;;;;;;1.40;0.82;;;9.10;69.20;;;;;;5034372;28;20017;-74
2021/12/08 12:25:48;;;;;;;2.30;1.08;;;9.10;69.20;;;;;;5022636;28;20064;-75
2021/12/08 12:28:27;;;;;;;3.35;1.10;;;9.10;68.50;;;;;;5021733;28;20476;-74
2021/12/08 12:31:19;;;;;;;5.80;1.00;;;9.10;68.80;;;;;;5025746;28;20037;-74
2021/12/08 12:33:46;;;;;;;2.58;1.35;;;9.20;68.60;;;;;;5033783;28;20040;-74
2021/12/08 12:36:33;;;;;;;2.65;1.10;;;9.20;69.00;;;;;;5018419;28;20022;-74
2021/12/08 12:39:21;;;;;;;4.82;1.50;;;9.20;69.10;;;;;;5018882;28;20061;-74
2021/12/08 12:42:02;;;;;;;7.22;1.55;;;9.20;68.10;;;;;;5017242;28;20105;-74
2021/12/08 12:44:32;;;;;;;1.00;0.90;;;9.20;68.90;;;;;;5020705;28;20034;-74
2021/12/08 12:47:15;;;;;;;3.05;1.08;;;9.20;69.10;;;;;;5058159;28;20056;-75
2021/12/08 12:49:44;;;;;;;2.08;0.90;;;9.20;68.70;;;;;;5058240;28;20025;-74
2021/12/08 12:52:12;;;;;;;3.70;1.20;;;9.20;68.80;;;;;;5021758;28;20057;-74
2021/12/08 12:54:39;;;;;;;4.00;1.02;;;9.20;68.90;;;;;;5018186;28;20142;-75
2021/12/08 12:57:07;;;;;;;3.58;1.25;;;9.20;68.90;;;;;;5018219;28;20085;-74
2021/12/08 12:59:50;;;;;;;3.40;1.20;;;9.30;69.30;;;;;;5017655;28;20022;-75
2021/12/08 13:02:40;;;;;;;2.35;0.93;;;9.20;68.90;;;;;;5018385;28;20576;-74
2021/12/08 13:05:11;;;;;;;1.00;0.70;;;9.20;68.80;;;;;;5018561;28;20087;-75
2021/12/08 13:07:39;;;;;;;1.27;0.90;;;9.20;68.20;;;;;;5017991;28;20113;-74
2021/12/08 13:10:17;;;;;;;1.65;1.00;;;9.20;68.10;;;;;;5018336;28;20041;-74
2021/12/08 13:12:45;;;;;;;3.25;0.90;;;9.20;67.80;;;;;;5028382;28;20030;-74
2021/12/08 13:15:20;;;;;;;1.58;1.23;;;9.20;68.50;;;;;;5027018;28;20025;-74
2021/12/08 13:18:11;;;;;;;3.55;1.48;;;9.20;67.80;;;;;;5026726;28;20021;-74
2021/12/08 13:20:54;;;;;;;3.35;1.20;;;9.20;68.40;;;;;;5028211;28;20032;-75
2021/12/08 13:23:22;;;;;;;2.45;1.13;;;9.20;67.50;;;;;;5028932;28;20022;-74
2021/12/08 13:25:59;;;;;;;1.65;0.90;;;9.10;68.70;;;;;;5027682;28;20029;-74
2021/12/08 13:28:48;;;;;;;3.03;1.33;;;8.90;68.30;;;;;;5019578;28;20030;-75
2021/12/08 13:34:23;;;;;;;1.67;1.08;;;8.90;68.30;;;;;;5017630;28;20037;-74
2021/12/08 13:36:48;;;;;;;1.92;0.93;;;8.90;69.00;;;;;;5017098;28;20029;-74
2021/12/08 13:39:29;;;;;;;2.30;0.90;;;8.90;69.10;;;;;;5017580;28;20033;-74
2021/12/08 13:41:59;;;;;;;5.90;1.33;;;8.80;69.00;;;;;;5017755;28;20018;-74
2021/12/08 13:44:34;;;;;;;2.70;0.80;;;8.70;69.30;;;;;;5016861;28;20029;-75
2021/12/08 13:47:03;;;;;;;3.45;0.95;;;8.70;69.20;;;;;;5017096;28;20503;-75
2021/12/08 13:49:34;;;;;;;3.65;1.02;;;8.60;69.50;;;;;;5016948;28;20038;-74
2021/12/08 13:52:09;;;;;;;3.50;1.10;;;8.60;70.00;;;;;;5017128;28;20061;-75
2021/12/08 13:54:36;;;;;;;3.15;1.10;;;8.60;69.70;;;;;;5017660;28;20104;-74
2021/12/08 13:57:23;;;;;;;3.65;1.00;;;8.60;70.00;;;;;;5020499;28;20030;-74
2021/12/08 13:59:58;;;;;;;4.32;1.48;;;8.50;70.10;;;;;;5030159;28;20029;-74
2021/12/08 14:02:26;;;;;;;2.97;1.10;;;8.50;70.40;;;;;;5026906;28;20041;-74
2021/12/08 14:05:07;;;;;;;3.50;1.52;;;8.50;70.60;;;;;;5025777;28;20476;-74
2021/12/08 14:07:35;;;;;;;4.45;1.27;;;8.60;70.50;;;;;;5024196;28;20087;-74
2021/12/08 14:10:07;;;;;;;2.40;1.20;;;8.60;70.00;;;;;;5030173;28;20113;-75
2021/12/08 14:12:46;;;;;;;3.47;1.02;;;8.60;70.20;;;;;;5028825;28;20108;-74